Time;durP1;ratioP1;P1;durP2;ratioP2;P2;SDS_P1;SDS_P2;PMS_P1;PMS_P2;Temp;Humidity;BMP_temperature;BMP_pressure;BME280_temperature;BME280_humidity;BME280_pressure;Samples;Min_cycle;Max_cycle;Signal;HPM_P1;HPM_P2
2022/10/21 00:00:01;;;;;;;14.10;6.63;;;;;;;18.04;92.79;101411.53;2104505;28;20100;-74
2022/10/21 00:01:24;;;;;;;15.57;6.65;;;;;;;18.01;93.01;101411.53;2095930;28;20552;-75
2022/10/21 00:02:46;;;;;;;15.43;6.35;;;;;;;17.97;92.91;101413.34;2102155;28;20048;-74
2022/10/21 00:04:08;;;;;;;16.08;7.25;;;;;;;17.98;92.96;101404.44;2104900;28;20048;-74
2022/10/21 00:05:30;;;;;;;18.38;7.03;;;;;;;17.99;92.99;101408.84;2088476;28;20060;-74
2022/10/21 00:06:52;;;;;;;13.15;6.97;;;;;;;18.00;93.13;101407.97;2083204;28;20127;-74
2022/10/21 00:08:13;;;;;;;21.90;6.78;;;;;;;18.01;92.82;101401.72;2091211;28;20052;-74
2022/10/21 00:09:36;;;;;;;13.73;5.95;;;;;;;18.01;92.83;101407.06;2094917;28;20809;-74
2022/10/21 00:11:01;;;;;;;13.20;7.22;;;;;;;18.03;92.79;101402.63;2093813;28;20623;-74
2022/10/21 00:12:22;;;;;;;13.50;6.45;;;;;;;18.04;92.66;101412.41;2105111;28;20112;-74
2022/10/21 00:13:47;;;;;;;13.75;5.72;;;;;;;18.05;92.76;101408.81;2097399;28;20487;-74
2022/10/21 00:15:09;;;;;;;15.82;6.45;;;;;;;18.08;92.53;101408.81;2096706;28;20044;-74
2022/10/21 00:16:32;;;;;;;14.35;6.57;;;;;;;18.12;92.88;101404.34;2088348;28;20052;-74
2022/10/21 00:17:54;;;;;;;13.30;6.68;;;;;;;18.12;93.02;101399.88;2094157;28;20113;-74
2022/10/21 00:19:17;;;;;;;18.02;7.28;;;;;;;18.16;93.22;101403.44;2087839;28;20045;-74
2022/10/21 00:20:41;;;;;;;13.93;7.47;;;;;;;18.18;93.41;101399.84;2094026;28;20052;-74
2022/10/21 00:22:03;;;;;;;25.60;8.50;;;;;;;18.20;93.75;101406.09;2088477;28;20123;-74
2022/10/21 00:23:25;;;;;;;14.10;6.78;;;;;;;18.21;94.10;101397.16;2091300;28;20074;-75
2022/10/21 00:24:47;;;;;;;16.02;7.60;;;;;;;18.25;93.98;101403.38;2093498;28;20067;-74
2022/10/21 00:26:10;;;;;;;19.13;8.35;;;;;;;18.26;94.56;101403.38;2092258;28;20211;-74
2022/10/21 00:27:32;;;;;;;15.18;7.88;;;;;;;18.27;94.74;101406.94;2099876;28;20060;-74
2022/10/21 00:28:58;;;;;;;15.05;6.90;;;;;;;18.26;95.18;101400.69;2101883;28;20032;-75
2022/10/21 00:30:20;;;;;;;17.70;7.97;;;;;;;18.24;95.43;101399.84;2096530;28;20059;-74
2022/10/21 00:31:43;;;;;;;16.98;8.18;;;;;;;18.22;95.71;101398.94;2096087;28;20047;-74
2022/10/21 00:33:06;;;;;;;12.63;7.32;;;;;;;18.20;96.22;101403.41;2101974;28;20059;-74
2022/10/21 00:34:28;;;;;;;16.60;8.07;;;;;;;18.22;96.76;101398.94;2094113;28;20044;-74
2022/10/21 00:35:51;;;;;;;14.27;7.78;;;;;;;18.26;96.73;101399.81;2102153;28;20453;-75
2022/10/21 00:37:16;;;;;;;19.33;9.00;;;;;;;18.29;96.91;101397.13;2091972;28;20200;-74
2022/10/21 00:38:37;;;;;;;14.60;7.15;;;;;;;18.30;97.14;101394.47;2099280;28;20082;-74
2022/10/21 00:40:00;;;;;;;17.83;8.63;;;;;;;18.33;97.05;101399.78;2093319;28;20599;-75
2022/10/21 00:41:21;;;;;;;30.33;7.97;;;;;;;18.31;97.37;101393.53;2099363;28;20534;-75
2022/10/21 00:42:44;;;;;;;14.25;7.95;;;;;;;18.30;97.40;101399.81;2110358;28;20426;-74
2022/10/21 00:44:10;;;;;;;15.98;8.27;;;;;;;18.29;97.75;101387.34;2098524;28;20048;-75
2022/10/21 00:45:32;;;;;;;16.15;7.57;;;;;;;18.27;97.85;101399.81;2101850;28;20052;-75
2022/10/21 00:47:00;;;;;;;25.13;8.93;;;;;;;18.27;98.13;101399.81;2101254;28;20130;-75
2022/10/21 00:48:29;;;;;;;16.88;7.70;;;;;;;18.26;98.36;101390.00;2094758;28;20082;-75
2022/10/21 00:49:58;;;;;;;19.50;8.18;;;;;;;18.25;98.67;101400.69;2092340;28;20635;-75
2022/10/21 00:51:20;;;;;;;15.77;8.20;;;;;;;18.21;99.21;101391.81;2098480;28;20047;-75
2022/10/21 00:52:41;;;;;;;19.77;9.50;;;;;;;18.23;99.53;101394.50;2093957;28;20056;-74
2022/10/21 00:54:05;;;;;;;18.65;9.15;;;;;;;18.23;99.71;101389.16;2098933;28;20127;-75
2022/10/21 00:55:32;;;;;;;19.33;8.90;;;;;;;18.26;100.00;101394.47;2102182;28;20073;-74
2022/10/21 00:56:56;;;;;;;16.23;8.18;;;;;;;18.29;100.00;101399.81;2109813;28;20092;-75
2022/10/21 00:58:22;;;;;;;28.00;10.15;;;;;;;18.32;100.00;101397.09;2095499;28;20048;-74
2022/10/21 00:59:50;;;;;;;16.52;8.50;;;;;;;18.32;100.00;101386.41;2108431;28;20043;-75
2022/10/21 01:01:12;;;;;;;21.27;9.25;;;;;;;18.29;100.00;101391.78;2096543;28;20063;-74
2022/10/21 01:02:35;;;;;;;16.33;8.95;;;;;;;18.29;100.00;101394.47;2101791;28;20691;-75
2022/10/21 01:03:56;;;;;;;21.10;8.77;;;;;;;18.28;100.00;101384.66;2093563;28;20052;-74
2022/10/21 01:05:19;;;;;;;25.10;10.35;;;;;;;18.27;100.00;101388.22;2101972;28;20405;-75
2022/10/21 01:06:44;;;;;;;17.67;9.30;;;;;;;18.28;100.00;101396.25;2102168;28;20134;-74
2022/10/21 01:08:05;;;;;;;18.77;8.38;;;;;;;18.30;100.00;101382.88;2085542;28;20094;-75
2022/10/21 01:09:28;;;;;;;21.15;9.95;;;;;;;18.34;100.00;101395.31;2099353;28;20048;-74
2022/10/21 01:10:51;;;;;;;18.52;9.15;;;;;;;18.38;100.00;101386.38;2102107;28;20572;-75
2022/10/21 01:12:26;;;;;;;15.75;9.00;;;;;;;18.42;100.00;101388.16;2104678;28;20050;-74
2022/10/21 01:14:02;;;;;;;18.70;9.60;;;;;;;18.41;100.00;101383.69;2094688;28;20029;-75
2022/10/21 01:15:35;;;;;;;16.48;9.38;;;;;;;18.41;100.00;101388.16;2111099;28;20051;-74
2022/10/21 01:17:05;;;;;;;24.52;9.20;;;;;;;18.38;100.00;101382.84;2096415;28;20143;-74
2022/10/21 01:18:32;;;;;;;19.60;9.98;;;;;;;18.33;100.00;101383.72;2103174;28;20044;-75
2022/10/21 01:20:24;;;;;;;18.80;9.70;;;;;;;18.26;100.00;101387.34;2097811;28;20066;-75
2022/10/21 01:21:53;;;;;;;23.88;9.43;;;;;;;18.21;100.00;101388.25;2095416;28;20040;-74
2022/10/21 01:23:45;;;;;;;17.17;9.45;;;;;;;18.21;100.00;101388.25;2101064;28;20043;-73
2022/10/21 01:25:29;;;;;;;18.20;9.35;;;;;;;18.21;100.00;101386.47;2104472;28;20407;-74
2022/10/21 01:27:10;;;;;;;16.15;9.18;;;;;;;18.25;100.00;101388.22;2089188;28;20546;-74
2022/10/21 01:28:44;;;;;;;23.52;9.75;;;;;;;18.29;100.00;101391.78;2087911;28;20087;-74
2022/10/21 01:30:34;;;;;;;21.63;9.40;;;;;;;18.32;100.00;101395.31;2100213;28;20400;-73
2022/10/21 01:32:03;;;;;;;20.42;9.55;;;;;;;18.35;100.00;101390.84;2095956;28;20544;-74
2022/10/21 01:33:41;;;;;;;18.30;10.32;;;;;;;18.38;100.00;101396.19;2099658;28;20098;-75
2022/10/21 01:35:10;;;;;;;23.48;10.43;;;;;;;18.40;100.00;101383.69;2104270;28;20056;-73
2022/10/21 01:36:42;;;;;;;19.67;10.15;;;;;;;18.45;100.00;101395.22;2104420;28;20059;-74
2022/10/21 01:38:08;;;;;;;23.63;9.63;;;;;;;18.48;100.00;101392.56;2094976;28;20052;-73
2022/10/21 01:39:39;;;;;;;20.75;9.73;;;;;;;18.54;100.00;101387.16;2087979;28;20051;-74
2022/10/21 01:41:10;;;;;;;20.92;10.77;;;;;;;18.56;100.00;101383.63;2100857;28;20044;-74
2022/10/21 01:42:37;;;;;;;16.42;9.40;;;;;;;18.59;100.00;101385.38;2102898;28;20048;-74
2022/10/21 01:44:06;;;;;;;17.73;9.32;;;;;;;18.60;100.00;101387.16;2094154;28;20131;-74
2022/10/21 01:45:37;;;;;;;19.85;10.23;;;;;;;18.61;100.00;101392.50;2107099;28;20047;-73
2022/10/21 01:47:02;;;;;;;20.67;10.18;;;;;;;18.59;100.00;101391.59;2101924;28;20048;-74
2022/10/21 01:48:29;;;;;;;23.55;9.65;;;;;;;18.56;100.00;101388.97;2093975;28;20048;-74
2022/10/21 01:49:55;;;;;;;21.92;10.77;;;;;;;18.55;100.00;101396.97;2102250;28;20091;-74
2022/10/21 01:51:19;;;;;;;19.90;9.88;;;;;;;18.52;100.00;101400.53;2103933;28;20473;-74
2022/10/21 01:52:43;;;;;;;17.80;10.43;;;;;;;18.49;100.00;101395.22;2102145;28;20048;-74
2022/10/21 01:54:10;;;;;;;23.85;11.60;;;;;;;18.46;100.00;101389.00;2092577;28;20127;-74
2022/10/21 01:55:32;;;;;;;18.55;9.65;;;;;;;18.43;100.00;101400.63;2100395;28;20090;-74
2022/10/21 01:56:57;;;;;;;21.00;9.60;;;;;;;18.43;100.00;101400.63;2093676;28;20098;-74
2022/10/21 01:58:24;;;;;;;19.23;9.60;;;;;;;18.43;100.00;101391.72;2101549;28;20044;-74
2022/10/21 01:59:47;;;;;;;19.88;9.05;;;;;;;18.44;100.00;101390.81;2095638;28;20032;-74
2022/10/21 02:01:11;;;;;;;20.00;10.07;;;;;;;18.45;100.00;101393.44;2100794;28;20044;-74
2022/10/21 02:02:38;;;;;;;19.33;10.43;;;;;;;18.46;100.00;101402.38;2095201;28;20121;-74
2022/10/21 02:04:03;;;;;;;21.42;9.68;;;;;;;18.46;100.00;101400.56;2101728;28;20089;-74
2022/10/21 02:05:29;;;;;;;20.67;10.65;;;;;;;18.45;100.00;101412.16;2112105;28;20056;-74
2022/10/21 02:06:51;;;;;;;17.67;9.98;;;;;;;18.42;100.00;101408.63;2096827;28;20049;-74
2022/10/21 02:08:13;;;;;;;19.75;9.55;;;;;;;18.37;100.00;101405.13;2094853;28;20045;-74
2022/10/21 02:09:35;;;;;;;18.13;10.05;;;;;;;18.36;100.00;101401.56;2103251;28;20527;-74
2022/10/21 02:11:00;;;;;;;23.90;10.05;;;;;;;18.31;100.00;101404.22;2094676;28;20130;-74
2022/10/21 02:12:26;;;;;;;22.42;10.30;;;;;;;18.27;100.00;101402.47;2093673;28;20065;-74
2022/10/21 02:13:56;;;;;;;19.55;10.02;;;;;;;18.25;100.00;101396.25;2097496;28;20500;-74
2022/10/21 02:15:18;;;;;;;20.70;9.80;;;;;;;18.26;100.00;101391.78;2095712;28;20056;-73
2022/10/21 02:16:44;;;;;;;19.70;9.23;;;;;;;18.25;100.00;101406.94;2095103;28;20056;-74
2022/10/21 02:18:09;;;;;;;16.30;8.32;;;;;;;18.28;100.00;101393.56;2095135;28;20531;-74
2022/10/21 02:19:32;;;;;;;18.20;9.23;;;;;;;18.30;100.00;101393.56;2102906;28;20048;-75
2022/10/21 02:20:56;;;;;;;23.67;9.02;;;;;;;18.30;100.00;101389.13;2097775;28;20051;-74
2022/10/21 02:22:23;;;;;;;15.40;8.35;;;;;;;18.28;100.00;101398.03;2100550;28;20043;-74
2022/10/21 02:23:53;;;;;;;16.73;8.75;;;;;;;18.28;100.00;101406.03;2096960;28;20052;-74
2022/10/21 02:25:20;;;;;;;20.13;9.15;;;;;;;18.31;100.00;101398.03;2095653;28;20040;-75
2022/10/21 02:26:45;;;;;;;14.30;7.22;;;;;;;18.31;100.00;101404.22;2094002;28;20086;-74
2022/10/21 02:28:07;;;;;;;21.92;9.32;;;;;;;18.32;100.00;101407.78;2091972;28;20048;-74
2022/10/21 02:29:34;;;;;;;17.23;8.20;;;;;;;18.31;100.00;101404.22;2093633;28;20102;-75
2022/10/21 02:31:05;;;;;;;20.75;8.73;;;;;;;18.27;100.00;101402.47;2102058;28;20120;-74
2022/10/21 02:32:37;;;;;;;19.65;8.30;;;;;;;18.24;100.00;101405.19;2093711;28;20170;-74
2022/10/21 02:34:11;;;;;;;19.60;7.90;;;;;;;18.20;100.00;101407.88;2102524;28;20048;-74
2022/10/21 02:35:42;;;;;;;18.38;7.97;;;;;;;18.16;100.00;101400.78;2104915;28;20071;-74
2022/10/21 02:37:15;;;;;;;16.30;7.90;;;;;;;18.11;100.00;101403.47;2100912;28;20619;-74
2022/10/21 02:38:41;;;;;;;19.85;8.55;;;;;;;18.09;100.00;101399.91;2088400;28;20084;-74
2022/10/21 02:40:09;;;;;;;18.42;8.57;;;;;;;18.07;100.00;101411.50;2095520;28;20140;-74
2022/10/21 02:41:33;;;;;;;26.90;9.77;;;;;;;18.05;100.00;101410.63;2095786;28;20592;-74
2022/10/21 02:43:00;;;;;;;20.48;8.82;;;;;;;18.03;100.00;101412.41;2103337;28;20060;-74
2022/10/21 02:44:21;;;;;;;19.08;8.45;;;;;;;18.00;100.00;101410.63;2100635;28;20060;-74
2022/10/21 02:45:47;;;;;;;19.70;8.98;;;;;;;17.98;100.00;101411.56;2111381;28;20039;-74
2022/10/21 02:47:09;;;;;;;14.00;7.88;;;;;;;17.95;100.00;101407.09;2103559;28;20102;-74
2022/10/21 02:48:34;;;;;;;18.58;9.00;;;;;;;17.93;100.00;101408.88;2096977;28;20040;-74
2022/10/21 02:49:58;;;;;;;17.40;8.63;;;;;;;17.90;100.00;101415.16;2095135;28;20102;-74
2022/10/21 02:51:19;;;;;;;22.98;8.82;;;;;;;17.90;100.00;101412.47;2086482;28;20566;-74
2022/10/21 02:52:41;;;;;;;19.67;9.07;;;;;;;17.93;100.00;101417.78;2092128;28;20051;-74
2022/10/21 02:54:03;;;;;;;18.73;8.07;;;;;;;17.99;100.00;101418.66;2102496;28;20051;-74
2022/10/21 02:55:25;;;;;;;16.02;7.57;;;;;;;18.04;100.00;101417.75;2102479;28;20048;-74
2022/10/21 02:56:48;;;;;;;19.52;8.73;;;;;;;18.08;100.00;101415.94;2097154;28;20044;-74
2022/10/21 02:58:09;;;;;;;18.58;9.35;;;;;;;18.11;100.00;101410.59;2103036;28;20056;-74
2022/10/21 02:59:32;;;;;;;25.02;9.40;;;;;;;18.10;100.00;101416.84;2102856;28;20527;-73
2022/10/21 03:00:55;;;;;;;21.58;8.80;;;;;;;18.10;100.00;101415.06;2102007;28;20058;-74
2022/10/21 03:02:16;;;;;;;15.43;8.43;;;;;;;18.12;100.00;101420.38;2097206;28;20044;-74
2022/10/21 03:03:40;;;;;;;21.65;9.25;;;;;;;18.15;100.00;101415.03;2099938;28;20052;-74
2022/10/21 03:05:03;;;;;;;20.25;9.10;;;;;;;18.19;100.00;101408.75;2094283;28;20109;-74
2022/10/21 03:06:24;;;;;;;17.58;7.95;;;;;;;18.25;100.00;101411.38;2100383;28;20048;-74
2022/10/21 03:07:47;;;;;;;24.10;8.88;;;;;;;18.32;100.00;101416.69;2102123;28;20078;-74
2022/10/21 03:09:08;;;;;;;18.55;9.52;;;;;;;18.38;100.00;101407.75;2101234;28;20420;-74
2022/10/21 03:10:30;;;;;;;22.38;8.57;;;;;;;18.43;100.00;101413.09;2111197;28;20603;-74
2022/10/21 03:11:53;;;;;;;18.27;9.20;;;;;;;18.49;100.00;101411.28;2102288;28;20056;-74
2022/10/21 03:13:16;;;;;;;20.13;8.50;;;;;;;18.54;100.00;101416.59;2104661;28;20044;-74
2022/10/21 03:14:39;;;;;;;19.77;9.52;;;;;;;18.54;100.00;101419.25;2091204;28;20048;-74
2022/10/21 03:16:00;;;;;;;17.83;7.25;;;;;;;18.51;100.00;101406.78;2091849;28;20040;-74
2022/10/21 03:17:23;;;;;;;16.42;8.38;;;;;;;18.49;100.00;101421.06;2093168;28;20605;-74
2022/10/21 03:18:47;;;;;;;19.95;7.32;;;;;;;18.48;100.00;101406.81;2099897;28;20040;-74
2022/10/21 03:20:10;;;;;;;22.45;7.40;;;;;;;18.45;100.00;101416.63;2093571;28;20537;-74
2022/10/21 03:21:31;;;;;;;15.27;6.95;;;;;;;18.45;100.00;101419.28;2107939;28;20055;-74
2022/10/21 03:22:54;;;;;;;18.67;8.05;;;;;;;18.43;100.00;101419.34;2097066;28;20052;-74
2022/10/21 03:24:17;;;;;;;17.27;5.90;;;;;;;18.41;100.00;101420.22;2087689;28;20114;-74
2022/10/21 03:25:39;;;;;;;15.70;6.15;;;;;;;18.39;100.00;101417.56;2084065;28;20091;-74
2022/10/21 03:27:02;;;;;;;15.00;6.32;;;;;;;18.40;100.00;101422.00;2094271;28;20455;-74
2022/10/21 03:28:23;;;;;;;22.15;6.57;;;;;;;18.41;100.00;101425.56;2098255;28;20134;-74
2022/10/21 03:29:45;;;;;;;20.58;5.90;;;;;;;18.38;100.00;101417.59;2102628;28;20101;-73
2022/10/21 03:31:07;;;;;;;15.05;5.72;;;;;;;18.37;100.00;101429.19;2102571;28;20044;-74
2022/10/21 03:32:29;;;;;;;18.35;6.55;;;;;;;18.37;100.00;101438.09;2102160;28;20601;-74
2022/10/21 03:33:53;;;;;;;14.02;6.13;;;;;;;18.37;100.00;101434.53;2101868;28;20048;-74
2022/10/21 03:35:15;;;;;;;14.38;7.00;;;;;;;18.33;100.00;101434.53;2102233;28;20050;-74
2022/10/21 03:36:37;;;;;;;18.73;6.95;;;;;;;18.29;100.00;101429.22;2093989;28;20115;-75
2022/10/21 03:37:58;;;;;;;21.70;6.72;;;;;;;18.27;100.00;101431.88;2094355;28;20876;-74
2022/10/21 03:39:21;;;;;;;18.02;7.47;;;;;;;18.26;100.00;101429.22;2100847;28;20463;-75
2022/10/21 03:40:42;;;;;;;16.35;6.22;;;;;;;18.22;100.00;101439.03;2103016;28;20044;-75
2022/10/21 03:42:05;;;;;;;16.60;6.90;;;;;;;18.20;100.00;101429.25;2085329;28;20057;-76
2022/10/21 03:43:30;;;;;;;13.73;6.63;;;;;;;18.19;100.00;101439.03;2090123;28;20044;-75
2022/10/21 03:44:52;;;;;;;14.52;6.20;;;;;;;18.21;100.00;101434.59;2099442;28;20489;-74
2022/10/21 03:46:14;;;;;;;18.65;6.50;;;;;;;18.20;100.00;101431.91;2094099;28;20055;-75
2022/10/21 03:47:35;;;;;;;18.23;6.85;;;;;;;18.21;99.72;101431.91;2090957;28;20409;-75
2022/10/21 03:49:00;;;;;;;14.23;5.75;;;;;;;18.20;99.54;101426.56;2099047;28;20036;-74
2022/10/21 03:50:23;;;;;;;17.52;5.85;;;;;;;18.17;99.38;101434.63;2094099;28;20430;-75
2022/10/21 03:51:44;;;;;;;15.32;5.97;;;;;;;18.14;99.35;101438.19;2099787;28;20461;-74
2022/10/21 03:53:06;;;;;;;12.82;5.75;;;;;;;18.13;99.63;101435.50;2102497;28;20055;-75
2022/10/21 03:54:28;;;;;;;15.52;6.05;;;;;;;18.11;99.60;101435.53;2093723;28;20048;-75
2022/10/21 03:55:51;;;;;;;13.77;6.07;;;;;;;18.14;99.71;101429.28;2094052;28;20044;-74
2022/10/21 03:57:13;;;;;;;20.40;7.70;;;;;;;18.15;99.43;101434.63;2107283;28;20451;-74
2022/10/21 03:58:35;;;;;;;14.05;5.70;;;;;;;18.17;99.76;101439.97;2104605;28;20127;-74
2022/10/21 03:59:57;;;;;;;14.27;6.18;;;;;;;18.18;100.00;101437.25;2093935;28;20040;-74
2022/10/21 04:01:18;;;;;;;17.40;7.28;;;;;;;18.21;100.00;101429.25;2083649;28;20441;-74
2022/10/21 04:02:41;;;;;;;22.38;6.78;;;;;;;18.21;100.00;101429.25;2085740;28;20108;-75
2022/10/21 04:04:05;;;;;;;17.80;6.47;;;;;;;18.24;100.00;101425.69;2095014;28;20321;-74
2022/10/21 04:05:27;;;;;;;21.10;6.97;;;;;;;18.25;100.00;101424.75;2102822;28;20044;-75
2022/10/21 04:06:49;;;;;;;14.82;6.80;;;;;;;18.30;100.00;101422.97;2104276;28;20082;-75
2022/10/21 04:08:10;;;;;;;15.25;6.63;;;;;;;18.33;100.00;101418.47;2102218;28;20501;-75
2022/10/21 04:09:33;;;;;;;16.50;6.90;;;;;;;18.35;100.00;101417.59;2093587;28;20048;-75
2022/10/21 04:10:58;;;;;;;16.88;6.38;;;;;;;18.32;100.00;101414.03;2101337;28;20040;-74
2022/10/21 04:12:21;;;;;;;17.60;7.47;;;;;;;18.31;100.00;101419.41;2088293;28;20110;-74
2022/10/21 04:13:42;;;;;;;17.83;7.30;;;;;;;18.26;100.00;101422.09;2101030;28;20047;-75
2022/10/21 04:15:06;;;;;;;16.67;6.95;;;;;;;18.22;100.00;101414.09;2085111;28;20710;-74
2022/10/21 04:16:27;;;;;;;15.40;7.15;;;;;;;18.19;100.00;101419.44;2089350;28;20154;-74
2022/10/21 04:17:50;;;;;;;20.15;7.00;;;;;;;18.16;100.00;101424.81;2099307;28;20052;-74
2022/10/21 04:19:18;;;;;;;15.30;6.60;;;;;;;18.13;100.00;101427.50;2093938;28;20480;-74
2022/10/21 04:20:40;;;;;;;19.88;7.57;;;;;;;18.08;100.00;101429.31;2101034;28;20801;-74
2022/10/21 04:22:03;;;;;;;15.13;6.70;;;;;;;18.06;100.00;101431.09;2094266;28;20041;-74
2022/10/21 04:23:26;;;;;;;14.93;6.82;;;;;;;18.03;100.00;101434.69;2091249;28;20142;-73
2022/10/21 04:24:48;;;;;;;20.25;7.45;;;;;;;18.03;100.00;101437.34;2095890;28;20114;-74
2022/10/21 04:26:11;;;;;;;18.02;7.45;;;;;;;18.04;100.00;101438.25;2102252;28;20138;-74
2022/10/21 04:27:33;;;;;;;15.20;6.80;;;;;;;18.07;100.00;101440.88;2088214;28;20132;-75
2022/10/21 04:28:55;;;;;;;15.02;6.22;;;;;;;18.08;100.00;101440.00;2099272;28;20048;-74
2022/10/21 04:30:17;;;;;;;19.88;7.35;;;;;;;18.11;100.00;101435.53;2096964;28;20129;-74
2022/10/21 04:31:40;;;;;;;17.58;7.20;;;;;;;18.13;100.00;101435.50;2093461;28;20040;-74
2022/10/21 04:33:02;;;;;;;17.80;7.53;;;;;;;18.15;100.00;101437.28;2099208;28;20725;-74
2022/10/21 04:34:26;;;;;;;18.05;7.78;;;;;;;18.17;100.00;101440.88;2102245;28;20146;-74
2022/10/21 04:35:47;;;;;;;14.73;7.38;;;;;;;18.20;100.00;101439.94;2102042;28;20048;-74
2022/10/21 04:37:10;;;;;;;21.00;7.38;;;;;;;18.24;100.00;101445.28;2101287;28;20048;-74
2022/10/21 04:38:33;;;;;;;15.98;7.63;;;;;;;18.30;100.00;101445.25;2101509;28;20048;-74
2022/10/21 04:39:56;;;;;;;15.45;6.90;;;;;;;18.37;100.00;101450.56;2102169;28;20055;-74
2022/10/21 04:41:19;;;;;;;16.27;7.10;;;;;;;18.41;100.00;101455.88;2104135;28;20058;-74
2022/10/21 04:42:40;;;;;;;14.75;7.15;;;;;;;18.47;100.00;101447.81;2102456;28;20044;-74
2022/10/21 04:44:03;;;;;;;18.38;7.70;;;;;;;18.53;100.00;101438.88;2088147;28;20087;-74
2022/10/21 04:45:26;;;;;;;21.60;8.02;;;;;;;18.55;100.00;101455.81;2098455;28;20097;-74
2022/10/21 04:46:47;;;;;;;21.98;8.23;;;;;;;18.58;100.00;101448.66;2102284;28;20039;-74
2022/10/21 04:48:12;;;;;;;14.45;7.10;;;;;;;18.61;100.00;101454.00;2096186;28;20445;-74
2022/10/21 04:49:35;;;;;;;18.05;7.28;;;;;;;18.68;100.00;101454.88;2094256;28;20059;-74
2022/10/21 04:50:57;;;;;;;17.73;6.93;;;;;;;18.73;100.00;101455.72;2101265;28;20170;-74
2022/10/21 04:52:20;;;;;;;16.25;6.28;;;;;;;18.78;100.00;101464.59;2103934;28;20093;-75
2022/10/21 04:53:43;;;;;;;17.98;7.35;;;;;;;18.83;100.00;101451.19;2109289;28;20146;-74
2022/10/21 04:55:06;;;;;;;16.65;7.00;;;;;;;18.85;100.00;101458.28;2095798;28;20048;-75
2022/10/21 04:56:28;;;;;;;17.73;6.32;;;;;;;18.84;100.00;101461.88;2092077;28;20064;-75
2022/10/21 04:57:50;;;;;;;17.15;6.22;;;;;;;18.82;100.00;101466.38;2098659;28;20131;-74
2022/10/21 04:59:11;;;;;;;15.85;5.88;;;;;;;18.80;100.00;101476.19;2109804;28;20058;-74
2022/10/21 05:00:34;;;;;;;15.93;6.18;;;;;;;18.77;100.00;101468.19;2104338;28;20047;-74
2022/10/21 05:01:56;;;;;;;18.95;5.47;;;;;;;18.77;100.00;101470.88;2102287;28;20598;-74
2022/10/21 05:03:18;;;;;;;20.02;6.30;;;;;;;18.81;100.00;101472.59;2101654;28;20496;-73
2022/10/21 05:04:42;;;;;;;16.67;5.95;;;;;;;18.84;100.00;101475.25;2092980;28;20373;-74
2022/10/21 05:06:03;;;;;;;22.85;6.65;;;;;;;18.86;100.00;101476.13;2096863;28;20050;-74
2022/10/21 05:07:26;;;;;;;19.00;6.20;;;;;;;18.87;100.00;101483.25;2108427;28;20051;-74
2022/10/21 05:08:47;;;;;;;13.65;5.75;;;;;;;18.88;100.00;101478.81;2103859;28;20056;-75
2022/10/21 05:10:10;;;;;;;16.20;6.78;;;;;;;18.86;100.00;101484.16;2093880;28;20049;-74
2022/10/21 05:11:33;;;;;;;14.80;5.70;;;;;;;18.86;100.00;101481.47;2090828;28;20063;-74
2022/10/21 05:12:54;;;;;;;14.65;5.38;;;;;;;18.89;100.00;101489.50;2106595;28;20059;-75
2022/10/21 05:14:17;;;;;;;19.85;6.03;;;;;;;18.89;100.00;101492.19;2104852;28;20047;-74
2022/10/21 05:15:38;;;;;;;18.42;5.80;;;;;;;18.90;100.00;101487.72;2109058;28;20040;-74
2022/10/21 05:17:01;;;;;;;14.50;6.28;;;;;;;18.89;100.00;101493.97;2104282;28;20098;-74
2022/10/21 05:18:24;;;;;;;17.98;6.43;;;;;;;18.89;99.89;101492.19;2109507;28;20052;-74
2022/10/21 05:19:48;;;;;;;13.32;5.80;;;;;;;18.90;99.64;101496.63;2104581;28;20093;-74
2022/10/21 05:21:10;;;;;;;19.77;7.10;;;;;;;18.89;98.50;101496.63;2100623;28;20040;-74
2022/10/21 05:22:33;;;;;;;15.80;6.18;;;;;;;18.87;97.67;101498.44;2101186;28;20460;-74
2022/10/21 05:23:55;;;;;;;16.92;5.75;;;;;;;18.84;97.04;101501.16;2093399;28;20053;-75
2022/10/21 05:25:18;;;;;;;14.85;5.32;;;;;;;18.80;96.21;101502.03;2090732;28;20040;-74
2022/10/21 05:26:41;;;;;;;22.77;6.10;;;;;;;18.79;95.57;101508.28;2090364;28;20033;-74
2022/10/21 05:28:02;;;;;;;16.55;6.10;;;;;;;18.76;94.93;101505.66;2106553;28;20066;-74
2022/10/21 05:29:25;;;;;;;17.58;6.63;;;;;;;18.76;94.69;101505.66;2104784;28;20052;-74
2022/10/21 05:30:47;;;;;;;16.73;7.57;;;;;;;18.76;94.35;101525.25;2101695;28;20036;-74
2022/10/21 05:32:10;;;;;;;21.10;6.38;;;;;;;18.78;94.32;101506.50;2102487;28;20569;-75
2022/10/21 05:33:33;;;;;;;10.20;5.20;;;;;;;18.78;94.08;101519.88;2090230;28;20040;-75
2022/10/21 05:34:57;;;;;;;22.42;6.18;;;;;;;18.81;93.94;101525.22;2084196;28;20139;-75
2022/10/21 05:36:20;;;;;;;13.40;6.18;;;;;;;18.82;93.72;101527.91;2092412;28;20317;-75
2022/10/21 05:37:42;;;;;;;17.95;5.72;;;;;;;18.83;93.97;101524.34;2087083;28;20052;-75
2022/10/21 05:39:07;;;;;;;16.70;5.90;;;;;;;18.86;94.01;101526.97;2091143;28;20036;-75
2022/10/21 05:40:30;;;;;;;16.83;6.30;;;;;;;18.89;93.88;101535.00;2101304;28;20063;-74
2022/10/21 05:41:53;;;;;;;21.48;7.13;;;;;;;18.90;94.31;101546.59;2111406;28;20040;-74
2022/10/21 05:43:14;;;;;;;21.35;5.90;;;;;;;18.89;94.36;101545.69;2105561;28;20526;-74
2022/10/21 05:44:36;;;;;;;16.45;6.30;;;;;;;18.90;94.93;101542.13;2110519;28;20052;-74
2022/10/21 05:45:59;;;;;;;20.33;5.82;;;;;;;18.90;94.84;101550.16;2096686;28;20047;-74
2022/10/21 05:47:22;;;;;;;18.70;6.97;;;;;;;18.91;94.66;101549.22;2089355;28;20467;-75
2022/10/21 05:48:45;;;;;;;13.55;5.28;;;;;;;18.91;94.38;101538.53;2103755;28;20086;-75
2022/10/21 05:50:12;;;;;;;20.63;6.90;;;;;;;18.94;93.95;101551.00;2097275;28;20105;-75
2022/10/21 05:51:34;;;;;;;16.98;6.15;;;;;;;18.95;93.77;101542.97;2109315;28;20053;-74
2022/10/21 05:52:56;;;;;;;17.33;6.47;;;;;;;18.99;93.59;101547.41;2105821;28;20039;-73
2022/10/21 05:54:19;;;;;;;11.15;5.47;;;;;;;18.98;93.50;101556.31;2102769;28;20060;-74
2022/10/21 05:55:40;;;;;;;13.75;6.15;;;;;;;18.98;93.58;101555.44;2102840;28;20089;-74
2022/10/21 05:57:03;;;;;;;20.40;7.32;;;;;;;18.96;93.56;101558.16;2093720;28;20816;-73
2022/10/21 05:58:25;;;;;;;16.13;6.70;;;;;;;18.95;93.66;101564.38;2092540;28;20041;-73
2022/10/21 05:59:48;;;;;;;19.30;5.95;;;;;;;18.94;93.31;101556.34;2094486;28;20049;-74
2022/10/21 06:01:09;;;;;;;14.00;5.05;;;;;;;18.95;92.70;101569.75;2093852;28;20052;-72
2022/10/21 06:02:32;;;;;;;15.93;5.50;;;;;;;18.97;91.88;101551.00;2097054;28;20048;-73
2022/10/21 06:03:54;;;;;;;16.05;6.70;;;;;;;19.04;91.27;101555.41;2094774;28;20565;-73
2022/10/21 06:05:19;;;;;;;12.60;4.90;;;;;;;19.16;90.67;101567.84;2100630;28;20151;-73
2022/10/21 06:06:42;;;;;;;14.32;5.72;;;;;;;19.26;90.30;101567.75;2103206;28;20051;-73
2022/10/21 06:08:05;;;;;;;12.02;5.90;;;;;;;19.33;89.40;101569.47;2103341;28;20114;-74
2022/10/21 06:09:28;;;;;;;19.05;6.20;;;;;;;19.40;89.06;101573.00;2093938;28;20055;-73
2022/10/21 06:10:51;;;;;;;15.75;5.78;;;;;;;19.44;88.49;101567.59;2103000;28;20485;-73
2022/10/21 06:12:13;;;;;;;13.10;5.63;;;;;;;19.50;87.78;101562.22;2086671;28;20051;-73
2022/10/21 06:13:36;;;;;;;13.80;6.63;;;;;;;19.60;87.15;101563.06;2105060;28;20047;-73
2022/10/21 06:14:59;;;;;;;17.77;6.10;;;;;;;19.71;86.47;101566.50;2105346;28;20065;-73
2022/10/21 06:16:21;;;;;;;15.07;5.88;;;;;;;19.79;85.93;101564.66;2094444;28;20067;-73
2022/10/21 06:17:44;;;;;;;14.65;4.40;;;;;;;19.85;85.78;101561.03;2100784;28;20032;-72
2022/10/21 06:19:06;;;;;;;18.65;6.40;;;;;;;19.92;85.19;101556.50;2104105;28;20044;-73
2022/10/21 06:20:29;;;;;;;19.98;6.43;;;;;;;19.94;85.13;101565.41;2094604;28;20074;-72
2022/10/21 06:21:53;;;;;;;16.52;6.20;;;;;;;19.97;85.15;101558.22;2094741;28;20052;-74
2022/10/21 06:23:15;;;;;;;14.02;4.72;;;;;;;20.01;84.64;101569.81;2102298;28;20060;-74